Airfield :
LOGIN :

Register | Disclaimer

   EN    FR    IT 

 










Legend :    VFR   Marginal VFR   IFR   Intensive IFR   Very Intensive IFR
Visi :
Ceiling :
>= 8 km
>= 3000ft
5 to 8 km
1000 to 3000 ft
1500m to 5 km
500 to 1000 ft
800 to 1500m
200 to 500 ft
< 800m
< 200 ft
Symbols :   Thunderstorms  Fog  Heavy snow  Heavy precipitations  Wind > 20 kt
SIGMETs :     Misc.  Thunderstorms  Icing  Turbulence  Mountain Waves  Volcanic Ashes






- Airport Elevation : 160 ft
- IATA code : FMO


EDDG - Münster Osnabrück Int.

CURRENT METAR :
  • 282250Z AUTO VRB02KT 9000 NSC 03/02 Q1018 NOSIG

EXPIRED METARs :
  • 282220Z AUTO 13003KT 080V170 9000 FEW049 04/02 Q1018 NOSIG
  • 282150Z AUTO 13005KT 9000 BKN048 05/02 Q1018 NOSIG
  • 282120Z AUTO 13005KT 090V160 8000 OVC045 05/03 Q1019 NOSIG
  • 282050Z AUTO 13005KT 100V160 7000 OVC045 05/03 Q1019 NOSIG
  • 282020Z AUTO 13005KT 080V170 7000 BKN048 05/03 Q1019 NOSIG
  • 281950Z AUTO 12004KT 080V160 7000 FEW027 BKN049 05/03 Q1019 NOSIG
  • 281920Z AUTO 12003KT 080V170 7000 FEW035 05/03 Q1019 NOSIG
  • 281850Z AUTO 14004KT 8000 FEW030 05/03 Q1020 NOSIG
  • 281820Z AUTO 13004KT 9000 NSC 05/03 Q1020 NOSIG

TAF TAF EDDG
Valid from the 28 at 18:00 until the 29 at 18:00 UTC


281700Z 2818/2918 15004KT CAVOK
BECMG 2906/2909 17009KT



MET'MAP, your aeronautical weather chart ! - Copyright ORBIFLY December 2007 - Disclaimer

ORBIFLY MET'MAP TEAM :

Programming & Development : Alexandra Zaïnal
Original concept : Baudouin d'Aumeries
Technical & hardware support : Manuel Goepfert
Assistance : Marc-Olivier Méhu




SOURCES & CREDITS :

   NOAA